createdAt,value
2018-11-14T00:00:44.097Z,5.50
2018-11-14T00:01:44.101Z,5.70
2018-11-14T00:02:44.117Z,5.60
2018-11-14T00:03:44.135Z,6.30
2018-11-14T00:04:44.164Z,7.00
2018-11-14T00:05:44.162Z,6.30
2018-11-14T00:06:44.172Z,6.20
2018-11-14T00:07:44.187Z,5.60
2018-11-14T00:08:44.198Z,6.60
2018-11-14T00:09:44.327Z,6.50
2018-11-14T00:10:44.227Z,7.00
2018-11-14T00:11:44.245Z,8.20
2018-11-14T00:12:44.261Z,8.40
2018-11-14T00:13:44.270Z,9.20
2018-11-14T00:14:44.283Z,10.40
2018-11-14T00:15:44.294Z,10.10
2018-11-14T00:16:44.310Z,11.10
2018-11-14T00:17:44.325Z,11.50
2018-11-14T00:18:44.337Z,9.80
2018-11-14T00:19:44.349Z,10.60
2018-11-14T00:20:44.367Z,10.80
2018-11-14T00:21:44.672Z,10.60
2018-11-14T00:22:44.390Z,10.40
2018-11-14T00:23:44.416Z,11.30
2018-11-14T00:24:44.488Z,10.50
2018-11-14T00:25:44.445Z,10.90
2018-11-14T00:26:44.459Z,11.70
2018-11-14T00:27:44.480Z,10.40
2018-11-14T00:28:44.477Z,11.10
2018-11-14T00:29:44.491Z,9.90
2018-11-14T00:30:44.501Z,9.00
2018-11-14T00:31:44.528Z,8.80
2018-11-14T00:32:44.530Z,9.00
2018-11-14T00:33:44.609Z,8.40
2018-11-14T00:34:44.625Z,8.50
2018-11-14T00:35:44.604Z,8.60
2018-11-14T00:36:44.586Z,7.80
2018-11-14T00:37:44.598Z,7.70
2018-11-14T00:38:44.612Z,7.10
2018-11-14T00:39:44.630Z,7.30
2018-11-14T00:40:44.642Z,7.50
2018-11-14T00:41:44.653Z,6.70
2018-11-14T00:42:44.670Z,6.20
2018-11-14T00:43:44.683Z,6.90
2018-11-14T00:44:44.696Z,6.50
2018-11-14T00:45:44.708Z,6.10
2018-11-14T00:46:44.723Z,6.50
2018-11-14T00:47:44.738Z,6.40
2018-11-14T00:48:44.759Z,6.50
2018-11-14T00:49:44.766Z,6.40
2018-11-14T00:50:44.779Z,6.20
2018-11-14T00:51:44.788Z,6.20
2018-11-14T00:52:44.804Z,6.60
2018-11-14T00:53:44.819Z,6.50
2018-11-14T00:54:44.832Z,6.50
2018-11-14T00:55:44.853Z,5.90
2018-11-14T00:56:44.861Z,6.10
2018-11-14T00:57:44.875Z,6.80
2018-11-14T00:58:44.892Z,7.20
2018-11-14T00:59:44.903Z,6.80
2018-11-14T01:00:44.918Z,6.70
2018-11-14T01:01:45.076Z,7.10
2018-11-14T01:02:44.942Z,7.70
2018-11-14T01:03:44.965Z,7.90
2018-11-14T01:04:44.969Z,7.40
2018-11-14T01:05:44.982Z,7.30
2018-11-14T01:06:44.997Z,7.90
2018-11-14T01:07:45.017Z,7.90
2018-11-14T01:08:45.024Z,8.40
2018-11-14T01:09:45.039Z,9.00
2018-11-14T01:10:45.056Z,8.50
2018-11-14T01:11:45.070Z,9.60
2018-11-14T01:12:45.080Z,9.40
2018-11-14T01:13:45.098Z,10.10
2018-11-14T01:14:45.127Z,10.20
2018-11-14T01:15:45.123Z,9.60
2018-11-14T01:16:45.135Z,10.10
2018-11-14T01:17:45.146Z,9.80
2018-11-14T01:18:45.205Z,8.80
2018-11-14T01:19:45.176Z,8.10
2018-11-14T01:20:45.189Z,9.50
2018-11-14T01:21:45.278Z,9.60
2018-11-14T01:22:45.218Z,11.40
2018-11-14T01:23:45.233Z,12.50
2018-11-14T01:24:45.246Z,13.20
2018-11-14T01:25:45.259Z,14.20
2018-11-14T01:26:45.275Z,14.30
2018-11-14T01:27:45.287Z,16.80
2018-11-14T01:28:45.301Z,13.70
2018-11-14T01:29:45.312Z,13.60
2018-11-14T01:30:45.330Z,12.50
2018-11-14T01:31:45.345Z,11.40
2018-11-14T01:32:45.359Z,11.00
2018-11-14T01:33:45.369Z,10.00
2018-11-14T01:34:45.380Z,8.30
2018-11-14T01:35:45.461Z,9.00
2018-11-14T01:36:45.410Z,8.10
2018-11-14T01:37:45.424Z,8.20
2018-11-14T01:38:45.502Z,8.20
2018-11-14T01:39:45.451Z,7.50
2018-11-14T01:40:45.469Z,7.40
2018-11-14T01:41:45.477Z,7.10
2018-11-14T01:42:45.495Z,7.20
2018-11-14T01:43:45.505Z,6.70
2018-11-14T01:44:45.541Z,6.90
2018-11-14T01:45:45.529Z,7.20
2018-11-14T01:46:45.546Z,7.20
2018-11-14T01:47:45.558Z,6.80
2018-11-14T01:48:45.581Z,6.60
2018-11-14T01:49:45.585Z,6.70
2018-11-14T01:50:45.604Z,6.90
2018-11-14T01:51:45.625Z,6.50
2018-11-14T01:52:45.633Z,6.40
2018-11-14T01:53:45.643Z,6.40
2018-11-14T01:54:45.657Z,6.70
2018-11-14T01:55:45.669Z,6.60
2018-11-14T01:56:45.683Z,6.20
2018-11-14T01:57:45.698Z,5.90
2018-11-14T01:58:45.708Z,6.50
2018-11-14T01:59:45.723Z,5.90
2018-11-14T02:00:45.737Z,6.30
2018-11-14T02:01:45.751Z,6.20
2018-11-14T02:02:45.765Z,6.20
2018-11-14T02:03:45.777Z,6.00
2018-11-14T02:04:45.796Z,6.50
2018-11-14T02:05:45.803Z,6.70
2018-11-14T02:06:45.835Z,6.30
2018-11-14T02:07:45.838Z,6.90
2018-11-14T02:08:45.851Z,7.10
2018-11-14T02:09:45.860Z,7.30
2018-11-14T02:10:45.874Z,6.80
2018-11-14T02:11:45.887Z,6.90
2018-11-14T02:12:45.901Z,7.40
2018-11-14T02:13:45.920Z,7.20
2018-11-14T02:14:45.926Z,7.60
2018-11-14T02:15:45.942Z,7.40
2018-11-14T02:16:45.956Z,8.50
2018-11-14T02:17:45.967Z,8.70
2018-11-14T02:18:45.981Z,8.60
2018-11-14T02:19:45.995Z,8.30
2018-11-14T02:20:46.012Z,8.50
2018-11-14T02:21:46.035Z,8.50
2018-11-14T02:22:46.073Z,8.60
2018-11-14T02:23:46.051Z,9.30
2018-11-14T02:24:46.069Z,9.40
2018-11-14T02:25:46.078Z,9.10
2018-11-14T02:26:46.094Z,9.50
2018-11-14T02:27:46.103Z,9.20
2018-11-14T02:28:46.126Z,9.40
2018-11-14T02:29:46.130Z,9.40
2018-11-14T02:30:46.145Z,9.50
2018-11-14T02:31:46.158Z,9.10
2018-11-14T02:32:46.185Z,10.00
2018-11-14T02:33:46.184Z,9.40
2018-11-14T02:34:46.198Z,9.00
2018-11-14T02:35:46.217Z,9.60
2018-11-14T02:36:46.244Z,9.10
2018-11-14T02:37:46.241Z,9.50
2018-11-14T02:38:46.256Z,9.70
2018-11-14T02:39:46.263Z,9.10
2018-11-14T02:40:46.279Z,9.20
2018-11-14T02:41:46.293Z,8.80
2018-11-14T02:42:46.307Z,8.40
2018-11-14T02:43:46.323Z,8.80
2018-11-14T02:44:46.333Z,9.00
2018-11-14T02:45:46.348Z,7.70
2018-11-14T02:46:46.361Z,8.30
2018-11-14T02:47:46.373Z,8.50
2018-11-14T02:48:46.389Z,8.00
2018-11-14T02:49:46.399Z,8.00
2018-11-14T02:50:46.412Z,7.80
2018-11-14T02:51:46.428Z,7.90
2018-11-14T02:52:46.451Z,7.60
2018-11-14T02:53:46.459Z,7.70
2018-11-14T02:54:46.469Z,7.30
2018-11-14T02:55:46.481Z,7.80
2018-11-14T02:56:46.495Z,7.80
2018-11-14T02:57:46.506Z,7.80
2018-11-14T02:58:46.518Z,7.70
2018-11-14T02:59:46.533Z,7.80
2018-11-14T03:00:46.548Z,7.90
2018-11-14T03:01:46.562Z,7.50
2018-11-14T03:02:46.572Z,7.50
2018-11-14T03:03:46.585Z,7.40
2018-11-14T03:04:46.603Z,8.00
2018-11-14T03:05:46.624Z,7.20
2018-11-14T03:06:46.626Z,7.80
2018-11-14T03:07:46.642Z,8.00
2018-11-14T03:08:46.654Z,8.10
2018-11-14T03:38:05.870Z,5.60
2018-11-14T03:39:05.844Z,8.20
2018-11-14T03:40:57.761Z,10.80
2018-11-14T03:41:57.746Z,10.90
2018-11-14T03:43:49.669Z,10.70
2018-11-14T03:44:49.665Z,10.30
2018-11-14T03:46:41.615Z,10.40
2018-11-14T03:47:41.595Z,10.00
2018-11-14T03:49:33.534Z,10.00
2018-11-14T03:50:33.520Z,10.00
2018-11-14T03:52:25.436Z,9.90
2018-11-14T03:53:25.447Z,9.20
2018-11-14T03:55:17.390Z,9.50
2018-11-14T03:56:17.374Z,9.60
2018-11-14T03:58:09.308Z,8.40
2018-11-14T03:59:09.309Z,8.50
2018-11-14T04:01:01.233Z,9.30
2018-11-14T04:02:01.220Z,9.00
2018-11-14T04:03:53.120Z,8.50
2018-11-14T04:04:53.125Z,8.60
2018-11-14T04:06:45.054Z,8.70
2018-11-14T04:07:45.056Z,8.70
2018-11-14T04:09:36.972Z,8.80
2018-11-14T04:10:36.950Z,8.80
2018-11-14T04:12:28.887Z,8.70
2018-11-14T04:13:28.871Z,8.50
2018-11-14T04:15:20.805Z,8.30
2018-11-14T04:16:20.794Z,8.00
2018-11-14T04:18:12.713Z,8.10
2018-11-14T04:19:12.718Z,8.00
2018-11-14T04:21:04.673Z,7.80
2018-11-14T04:22:04.643Z,8.00
2018-11-14T04:23:56.547Z,7.60
2018-11-14T04:24:56.555Z,7.60
2018-11-14T04:26:48.476Z,7.00
2018-11-14T04:27:48.466Z,7.30
2018-11-14T04:29:40.386Z,7.50
2018-11-14T04:30:40.370Z,7.40
2018-11-14T04:32:32.282Z,7.60
2018-11-14T04:33:32.282Z,7.10
2018-11-14T04:35:24.213Z,6.90
2018-11-14T04:36:24.199Z,7.20
2018-11-14T04:38:16.108Z,6.70
2018-11-14T04:39:16.109Z,6.80
2018-11-14T04:41:08.032Z,6.40
2018-11-14T04:42:08.024Z,6.80
2018-11-14T04:43:59.948Z,6.00
2018-11-14T04:44:59.937Z,6.00
2018-11-14T04:46:51.866Z,6.20
2018-11-14T04:47:51.855Z,6.40
2018-11-14T04:49:43.779Z,6.20
2018-11-14T04:50:43.768Z,6.00
2018-11-14T04:52:35.706Z,6.50
2018-11-14T04:53:35.708Z,6.00
2018-11-14T04:55:27.636Z,6.30
2018-11-14T04:56:27.612Z,6.00
2018-11-14T04:58:19.519Z,5.90
2018-11-14T04:59:19.524Z,6.10
2018-11-14T05:01:11.448Z,6.10
2018-11-14T05:02:11.439Z,5.90
2018-11-14T05:04:03.348Z,6.00
2018-11-14T05:05:03.353Z,5.80
2018-11-14T05:06:55.290Z,6.50
2018-11-14T05:07:55.270Z,6.10
2018-11-14T05:09:47.185Z,6.10
2018-11-14T05:10:47.192Z,6.20
2018-11-14T05:12:39.116Z,6.60
2018-11-14T05:13:39.109Z,6.40
2018-11-14T05:15:31.030Z,6.00
2018-11-14T05:16:31.021Z,6.60
2018-11-14T05:18:22.928Z,5.70
2018-11-14T05:19:22.942Z,5.90
2018-11-14T05:21:14.859Z,6.60
2018-11-14T05:22:14.855Z,5.70
2018-11-14T05:24:06.760Z,6.20
2018-11-14T05:25:06.764Z,6.00
2018-11-14T05:26:58.702Z,6.00
2018-11-14T05:27:58.690Z,5.70
2018-11-14T05:29:50.596Z,5.50
2018-11-14T05:30:50.604Z,5.90
2018-11-14T05:32:42.541Z,6.80
2018-11-14T05:33:42.521Z,6.30
2018-11-14T05:35:34.453Z,6.20
2018-11-14T05:36:34.438Z,6.30
2018-11-14T05:38:26.348Z,5.80
2018-11-14T05:39:26.375Z,6.10
2018-11-14T05:41:18.282Z,6.00
2018-11-14T05:42:18.268Z,5.70
2018-11-14T05:44:10.175Z,6.40
2018-11-14T05:45:10.203Z,7.20
2018-11-14T05:47:02.110Z,6.40
2018-11-14T05:48:02.095Z,6.40
2018-11-14T05:49:54.006Z,6.20
2018-11-14T05:50:54.012Z,6.20
2018-11-14T05:52:45.938Z,6.50
2018-11-14T05:53:45.926Z,6.00
2018-11-14T05:55:37.853Z,6.10
2018-11-14T05:56:37.834Z,6.30
2018-11-14T05:58:29.749Z,7.00
2018-11-14T05:59:29.755Z,6.70
2018-11-14T06:01:21.677Z,6.70
2018-11-14T06:02:21.666Z,7.10
2018-11-14T06:04:13.566Z,6.50
2018-11-14T06:05:13.578Z,7.20
2018-11-14T06:07:05.560Z,7.20
2018-11-14T06:08:05.491Z,7.50
2018-11-14T06:09:57.454Z,7.20
2018-11-14T06:10:57.401Z,7.30
2018-11-14T06:12:49.330Z,7.20
2018-11-14T06:13:49.319Z,7.40
2018-11-14T06:15:41.251Z,7.00
2018-11-14T06:16:41.234Z,7.90
2018-11-14T06:18:33.169Z,7.90
2018-11-14T06:19:33.175Z,7.10
2018-11-14T06:21:25.108Z,7.50
2018-11-14T06:22:25.109Z,7.40
2018-11-14T06:24:17.075Z,7.30
2018-11-14T06:25:17.028Z,7.70
2018-11-14T06:27:09.028Z,7.40
2018-11-14T06:28:08.960Z,7.30
2018-11-14T06:30:00.897Z,7.60
2018-11-14T06:31:00.904Z,7.80
2018-11-14T06:32:52.847Z,7.90
2018-11-14T06:33:52.833Z,7.70
2018-11-14T06:35:44.766Z,8.00
2018-11-14T06:36:44.768Z,7.90
2018-11-14T06:38:36.741Z,7.40
2018-11-14T06:39:36.733Z,7.40
2018-11-14T06:41:28.714Z,7.70
2018-11-14T06:42:28.644Z,7.80
2018-11-14T06:44:20.616Z,7.60
2018-11-14T06:45:20.551Z,7.40
2018-11-14T06:47:12.471Z,7.20
2018-11-14T06:48:12.468Z,7.50
2018-11-14T06:50:04.477Z,8.00
2018-11-14T06:51:04.374Z,7.80
2018-11-14T06:52:56.311Z,8.30
2018-11-14T06:53:56.290Z,7.80
2018-11-14T06:55:48.209Z,8.00
2018-11-14T06:56:48.217Z,7.80
2018-11-14T06:58:40.184Z,8.10
2018-11-14T06:59:40.195Z,7.50
2018-11-14T07:01:32.049Z,8.00
2018-11-14T07:02:38.334Z,7.20
2018-11-14T07:04:23.965Z,8.40
2018-11-14T07:05:24.011Z,7.60
2018-11-14T07:07:15.922Z,8.00
2018-11-14T07:08:15.898Z,8.00
2018-11-14T07:10:07.810Z,8.50
2018-11-14T07:11:07.887Z,8.00
2018-11-14T07:12:59.737Z,8.00
2018-11-14T07:13:59.729Z,8.80
2018-11-14T07:15:51.645Z,8.40
2018-11-14T07:16:51.651Z,8.40
2018-11-14T07:18:43.584Z,8.20
2018-11-14T07:19:43.569Z,8.20
2018-11-14T07:21:35.495Z,8.50
2018-11-14T07:22:35.485Z,8.40
2018-11-14T07:24:27.456Z,7.80
2018-11-14T07:25:27.395Z,8.20
2018-11-14T07:27:19.325Z,8.30
2018-11-14T07:28:19.315Z,8.30
2018-11-14T07:30:11.229Z,7.80
2018-11-14T07:31:11.236Z,7.90
2018-11-14T07:33:03.161Z,8.80
2018-11-14T07:34:03.152Z,9.00
2018-11-14T07:35:55.087Z,8.70
2018-11-14T07:36:55.066Z,8.40
2018-11-14T07:38:46.991Z,7.90
2018-11-14T07:39:46.981Z,8.00
2018-11-14T07:41:38.911Z,9.30
2018-11-14T07:42:38.899Z,7.80
2018-11-14T07:44:30.808Z,8.00
2018-11-14T07:45:30.807Z,8.00
2018-11-14T07:47:22.740Z,7.80
2018-11-14T07:48:22.718Z,8.10
2018-11-14T07:50:14.656Z,8.00
2018-11-14T07:51:14.732Z,8.90
2018-11-14T07:53:06.580Z,8.90
2018-11-14T07:54:06.569Z,8.80
2018-11-14T07:55:58.488Z,8.80
2018-11-14T07:56:58.483Z,9.00
2018-11-14T07:58:50.416Z,8.60
2018-11-14T07:59:50.408Z,9.00
2018-11-14T08:01:42.449Z,8.60
2018-11-14T08:02:42.332Z,8.40
2018-11-14T08:04:34.254Z,8.30
2018-11-14T08:05:34.247Z,8.30
2018-11-14T08:07:26.244Z,9.10
2018-11-14T08:08:26.317Z,8.60
2018-11-14T08:10:18.123Z,8.70
2018-11-14T08:11:18.104Z,8.20
2018-11-14T08:13:10.072Z,8.40
2018-11-14T08:14:10.055Z,8.50
2018-11-14T08:16:02.463Z,9.10
2018-11-14T08:17:01.914Z,9.00
2018-11-14T08:18:53.998Z,8.30
2018-11-14T08:19:53.845Z,8.70
2018-11-14T08:21:45.811Z,8.80
2018-11-14T08:22:45.793Z,8.20
2018-11-14T08:24:37.685Z,8.70
2018-11-14T08:25:37.704Z,8.40
2018-11-14T08:27:29.690Z,8.60
2018-11-14T08:28:29.589Z,8.60
2018-11-14T08:30:21.581Z,8.40
2018-11-14T08:31:21.477Z,8.60
2018-11-14T08:33:13.409Z,8.60
2018-11-14T08:34:13.401Z,9.10
2018-11-14T08:36:05.311Z,8.70
2018-11-14T08:37:05.311Z,8.70
2018-11-14T08:38:57.285Z,8.40
2018-11-14T08:39:57.238Z,8.20
2018-11-14T08:41:49.164Z,8.40
2018-11-14T08:42:49.154Z,8.40
2018-11-14T08:44:41.093Z,8.40
2018-11-14T08:45:41.073Z,8.40
2018-11-14T08:47:33.001Z,8.30
2018-11-14T08:48:32.986Z,8.30
2018-11-14T08:50:24.963Z,8.20
2018-11-14T08:51:24.900Z,7.90
2018-11-14T08:53:16.826Z,8.10
2018-11-14T08:54:16.816Z,8.50
2018-11-14T08:56:08.729Z,7.60
2018-11-14T08:57:08.752Z,7.90
2018-11-14T08:59:00.701Z,7.80
2018-11-14T09:00:00.658Z,7.40
2018-11-14T09:01:52.559Z,7.50
2018-11-14T09:02:52.583Z,7.20
2018-11-14T09:04:44.508Z,7.70
2018-11-14T09:05:44.490Z,8.30
2018-11-14T09:07:36.471Z,7.30
2018-11-14T09:08:36.404Z,6.90
2018-11-14T09:10:28.311Z,7.60
2018-11-14T09:11:28.498Z,7.30
2018-11-14T09:13:20.251Z,7.80
2018-11-14T09:14:20.295Z,7.70
2018-11-14T09:16:12.183Z,7.30
2018-11-14T09:17:12.162Z,7.50
2018-11-14T09:19:04.087Z,7.00
2018-11-14T09:20:04.070Z,7.30
2018-11-14T09:21:55.989Z,7.20
2018-11-14T09:22:56.016Z,7.20
2018-11-14T09:24:48.040Z,7.30
2018-11-14T09:25:47.938Z,7.30
2018-11-14T09:27:39.886Z,6.80
2018-11-14T09:28:39.864Z,7.10
2018-11-14T09:30:31.763Z,6.60
2018-11-14T09:31:31.784Z,6.60
2018-11-14T09:33:23.834Z,6.80
2018-11-14T09:34:23.817Z,6.90
2018-11-14T09:36:15.835Z,6.50
2018-11-14T09:37:15.860Z,6.80
2018-11-14T09:39:07.795Z,6.80
2018-11-14T09:40:07.785Z,6.80
2018-11-14T09:41:59.801Z,6.80
2018-11-14T09:42:59.811Z,6.70
2018-11-14T09:44:51.753Z,7.30
2018-11-14T09:45:51.746Z,6.30
2018-11-14T09:47:44.176Z,6.70
2018-11-14T09:48:44.167Z,6.30
2018-11-14T09:50:36.110Z,6.20
2018-11-14T09:51:36.119Z,6.20
2018-11-14T09:53:28.118Z,5.90
2018-11-14T09:54:28.046Z,6.30
2018-11-14T09:56:19.945Z,6.40
2018-11-14T09:57:19.947Z,6.50
2018-11-14T09:59:11.885Z,6.60
2018-11-14T10:00:11.876Z,6.30
2018-11-14T10:02:03.818Z,7.00
2018-11-14T10:03:03.817Z,7.10
2018-11-14T10:04:55.720Z,6.70
2018-11-14T10:05:55.714Z,7.10
2018-11-14T10:07:47.648Z,6.20
2018-11-14T10:08:47.656Z,7.10
2018-11-14T10:10:39.550Z,6.20
2018-11-14T10:11:39.556Z,6.00
2018-11-14T10:13:32.006Z,6.00
2018-11-14T10:14:32.001Z,6.00
2018-11-14T10:16:23.919Z,5.30
2018-11-14T10:17:23.915Z,5.20
2018-11-14T10:19:15.887Z,5.20
2018-11-14T10:20:15.873Z,5.10
2018-11-14T10:22:07.810Z,5.40
2018-11-14T10:23:07.810Z,6.10
2018-11-14T10:24:59.760Z,5.80
2018-11-14T10:25:59.730Z,6.10
2018-11-14T10:27:52.211Z,5.60
2018-11-14T10:28:52.178Z,6.30
2018-11-14T10:30:44.102Z,6.00
2018-11-14T10:31:44.214Z,5.80
2018-11-14T10:33:36.522Z,6.10
2018-11-14T10:34:36.508Z,6.20
2018-11-14T10:36:28.436Z,6.60
2018-11-14T10:37:28.438Z,6.10
2018-11-14T10:39:20.889Z,6.20
2018-11-14T10:40:20.876Z,6.30
2018-11-14T10:42:12.785Z,6.40
2018-11-14T10:43:12.795Z,6.10
2018-11-14T10:45:04.722Z,5.70
2018-11-14T10:46:04.718Z,6.20
2018-11-14T10:47:56.643Z,6.40
2018-11-14T10:48:56.633Z,6.00
2018-11-14T10:50:48.615Z,6.40
2018-11-14T10:51:48.562Z,6.00
2018-11-14T10:52:48.578Z,5.70
2018-11-14T10:53:48.592Z,6.00
2018-11-14T10:54:48.614Z,5.60
2018-11-14T10:55:48.635Z,5.50
2018-11-14T10:56:48.645Z,5.80
2018-11-14T10:57:48.685Z,6.00
2018-11-14T10:58:48.732Z,5.50
2018-11-14T10:59:48.685Z,5.70
2018-11-14T11:00:48.733Z,5.40
2018-11-14T11:01:48.748Z,6.00
2018-11-14T11:02:48.738Z,5.40
2018-11-14T11:03:48.886Z,5.70
2018-11-14T11:04:48.764Z,5.70
2018-11-14T11:05:48.821Z,5.80
2018-11-14T11:06:48.860Z,5.60
2018-11-14T11:07:48.859Z,5.30
2018-11-14T11:08:48.912Z,5.30
2018-11-14T11:09:48.877Z,5.70
2018-11-14T11:10:48.869Z,5.10
2018-11-14T11:11:48.893Z,5.20
2018-11-14T11:12:48.895Z,5.30
2018-11-14T11:13:48.992Z,5.60
2018-11-14T11:14:48.928Z,5.80
2018-11-14T11:15:48.976Z,5.60
2018-11-14T11:16:49.159Z,5.60
2018-11-14T11:17:48.971Z,5.70
2018-11-14T11:18:48.994Z,5.20
2018-11-14T11:19:49.007Z,5.40
2018-11-14T11:20:49.057Z,4.90
2018-11-14T11:21:50.505Z,5.20
2018-11-14T11:22:49.067Z,5.20
2018-11-14T11:23:49.075Z,5.30
2018-11-14T11:24:49.095Z,5.50
2018-11-14T11:25:49.112Z,5.20
2018-11-14T11:26:49.121Z,5.30
2018-11-14T11:27:49.135Z,5.00
2018-11-14T11:28:49.171Z,5.30
2018-11-14T11:29:49.179Z,5.50
2018-11-14T11:30:49.300Z,5.50
2018-11-14T11:31:49.207Z,5.40
2018-11-14T11:32:49.233Z,5.70
2018-11-14T11:33:49.241Z,5.20
2018-11-14T11:34:49.263Z,5.50
2018-11-14T11:35:49.270Z,5.30
2018-11-14T11:36:49.280Z,5.10
2018-11-14T11:37:49.298Z,4.80
2018-11-14T11:38:49.325Z,5.20
2018-11-14T11:39:49.330Z,4.70
2018-11-14T11:40:49.499Z,4.90
2018-11-14T11:41:49.363Z,4.70
2018-11-14T11:42:49.379Z,4.80
2018-11-14T11:43:49.588Z,4.10
2018-11-14T11:44:49.512Z,4.60
2018-11-14T11:45:49.434Z,4.90
2018-11-14T11:46:49.564Z,4.90
2018-11-14T11:47:49.485Z,4.60
2018-11-14T11:48:49.482Z,4.50
2018-11-14T11:49:49.499Z,4.40
2018-11-14T11:50:49.518Z,4.20
2018-11-14T11:51:49.527Z,4.80
2018-11-14T11:52:49.552Z,4.80
2018-11-14T11:53:49.656Z,4.20
2018-11-14T11:54:49.655Z,4.60
2018-11-14T11:55:49.686Z,4.20
2018-11-14T11:56:49.676Z,4.30
2018-11-14T11:57:49.690Z,4.20
2018-11-14T11:58:49.718Z,4.20
2018-11-14T11:59:49.914Z,4.20
2018-11-14T12:00:49.783Z,4.10
2018-11-14T12:01:50.768Z,4.10
2018-11-14T12:02:50.768Z,4.30
2018-11-14T12:03:49.785Z,3.80
2018-11-14T12:04:50.661Z,4.10
2018-11-14T12:05:49.838Z,3.80
2018-11-14T12:06:49.839Z,4.10
2018-11-14T12:07:49.847Z,3.80
2018-11-14T12:08:49.825Z,3.90
2018-11-14T12:09:50.645Z,3.80
2018-11-14T12:10:53.665Z,3.80
2018-11-14T12:11:49.904Z,4.20
2018-11-14T12:12:49.941Z,3.90
2018-11-14T12:13:49.945Z,4.00
2018-11-14T12:14:49.908Z,3.60
2018-11-14T12:15:49.945Z,3.80
2018-11-14T12:16:49.958Z,3.90
2018-11-14T12:17:50.043Z,3.80
2018-11-14T12:18:50.025Z,3.90
2018-11-14T12:19:49.993Z,4.10
2018-11-14T12:20:50.013Z,3.70
2018-11-14T12:21:50.029Z,3.50
2018-11-14T12:22:50.044Z,3.90
2018-11-14T12:23:50.058Z,3.30
2018-11-14T12:24:50.082Z,3.50
2018-11-14T12:25:50.090Z,3.60
2018-11-14T12:26:50.116Z,3.50
2018-11-14T12:27:50.127Z,3.30
2018-11-14T12:28:50.147Z,3.50
2018-11-14T12:29:50.156Z,3.40
2018-11-14T12:30:50.337Z,3.40
2018-11-14T12:31:50.190Z,3.50
2018-11-14T12:32:50.215Z,3.20
2018-11-14T12:33:50.231Z,3.50
2018-11-14T12:34:50.313Z,3.20
2018-11-14T12:35:50.342Z,3.30
2018-11-14T12:36:50.272Z,3.20
2018-11-14T12:37:50.295Z,3.30
2018-11-14T12:38:50.362Z,3.50
2018-11-14T12:39:50.326Z,3.20
2018-11-14T12:40:50.365Z,3.30
2018-11-14T12:41:50.416Z,3.40
2018-11-14T12:42:50.451Z,3.40
2018-11-14T12:43:50.435Z,2.90
2018-11-14T12:44:50.439Z,3.10
2018-11-14T12:45:50.424Z,2.90
2018-11-14T12:46:50.455Z,3.00
2018-11-14T12:47:50.460Z,3.10
2018-11-14T12:48:50.475Z,3.60
2018-11-14T12:49:50.493Z,3.10
2018-11-14T12:50:50.508Z,3.10
2018-11-14T12:51:50.522Z,2.90
2018-11-14T12:52:50.663Z,3.10
2018-11-14T12:53:50.560Z,3.10
2018-11-14T12:54:50.772Z,3.10
2018-11-14T12:55:50.629Z,3.00
2018-11-14T12:56:50.655Z,3.00
2018-11-14T12:57:50.625Z,3.60
2018-11-14T12:58:50.681Z,2.90
2018-11-14T12:59:50.708Z,2.70
2018-11-14T13:00:50.679Z,3.10
2018-11-14T13:01:50.692Z,3.10
2018-11-14T13:02:50.712Z,3.20
2018-11-14T13:03:50.730Z,3.30
2018-11-14T13:04:50.744Z,3.00
2018-11-14T13:05:50.764Z,2.80
2018-11-14T13:06:50.783Z,3.10
2018-11-14T13:07:50.795Z,3.20
2018-11-14T13:08:50.811Z,3.10
2018-11-14T13:09:50.829Z,2.80
2018-11-14T13:10:50.847Z,2.90
2018-11-14T13:11:50.861Z,2.80
2018-11-14T13:12:50.882Z,3.40
2018-11-14T13:13:50.898Z,3.00
2018-11-14T13:14:50.913Z,3.50
2018-11-14T13:15:50.941Z,3.10
2018-11-14T13:16:50.956Z,3.40
2018-11-14T13:17:51.024Z,3.50
2018-11-14T13:18:50.980Z,3.30
2018-11-14T13:19:51.030Z,3.20
2018-11-14T13:20:51.011Z,3.00
2018-11-14T13:21:57.198Z,3.20
2018-11-14T13:23:42.965Z,3.10
2018-11-14T13:24:42.958Z,3.20
2018-11-14T13:26:34.901Z,3.30
2018-11-14T13:27:34.889Z,3.20
2018-11-14T13:29:26.801Z,3.30
2018-11-14T13:30:26.821Z,3.10
2018-11-14T13:32:18.748Z,3.30
2018-11-14T13:33:18.738Z,3.10
2018-11-14T13:35:10.697Z,3.40
2018-11-14T13:36:10.661Z,3.40
2018-11-14T13:38:04.032Z,3.20
2018-11-14T13:39:02.590Z,3.50
2018-11-14T13:40:54.534Z,3.20
2018-11-14T13:41:54.523Z,3.30
2018-11-14T13:43:46.509Z,3.10
2018-11-14T13:44:46.444Z,3.00
2018-11-14T13:46:38.391Z,3.50
2018-11-14T13:47:38.380Z,3.50
2018-11-14T13:49:30.401Z,5.60
2018-11-14T13:50:30.463Z,5.50
2018-11-14T13:52:22.243Z,9.50
2018-11-14T13:53:22.231Z,9.40
2018-11-14T13:55:14.173Z,10.00
2018-11-14T13:56:14.170Z,9.90
2018-11-14T13:58:06.082Z,10.30
2018-11-14T13:59:06.096Z,10.60
2018-11-14T14:00:58.043Z,11.70
2018-11-14T14:01:58.034Z,11.50
2018-11-14T14:03:49.946Z,14.20
2018-11-14T14:04:49.966Z,14.50
2018-11-14T14:06:41.890Z,15.90
2018-11-14T14:07:41.878Z,16.00
2018-11-14T14:09:33.830Z,14.90
2018-11-14T14:10:33.818Z,14.90
2018-11-14T14:12:25.754Z,14.60
2018-11-14T14:13:25.744Z,14.50
2018-11-14T14:15:17.682Z,15.00
2018-11-14T14:16:17.681Z,14.80
2018-11-14T14:18:09.582Z,15.00
2018-11-14T14:19:09.606Z,14.40
2018-11-14T14:21:01.540Z,15.00
2018-11-14T14:22:01.533Z,15.30
2018-11-14T14:23:53.446Z,14.80
2018-11-14T14:24:53.464Z,15.00
2018-11-14T14:26:45.390Z,15.30
2018-11-14T14:27:45.378Z,14.70
2018-11-14T14:29:37.296Z,15.20
2018-11-14T14:30:37.339Z,14.20
2018-11-14T14:32:29.248Z,14.50
2018-11-14T14:33:29.237Z,15.00
2018-11-14T14:35:21.169Z,14.70
2018-11-14T14:36:21.156Z,14.80
2018-11-14T14:38:13.174Z,14.60
2018-11-14T14:39:13.084Z,14.30
2018-11-14T14:41:05.030Z,14.80
2018-11-14T14:42:05.013Z,15.70
2018-11-14T14:43:56.930Z,15.30
2018-11-14T14:44:56.934Z,15.20
2018-11-14T14:46:48.928Z,15.70
2018-11-14T14:47:48.921Z,15.30
2018-11-14T14:49:40.852Z,16.30
2018-11-14T14:50:40.847Z,15.20
2018-11-14T14:52:32.791Z,15.40
2018-11-14T14:53:32.779Z,16.40
2018-11-14T14:55:25.209Z,15.70
2018-11-14T14:56:25.246Z,16.30
2018-11-14T14:58:17.349Z,16.60
2018-11-14T14:59:17.126Z,16.30
2018-11-14T15:01:09.055Z,15.10
2018-11-14T15:02:09.039Z,16.50
2018-11-14T15:04:00.956Z,16.40
2018-11-14T15:05:00.961Z,16.50
2018-11-14T15:06:52.891Z,15.70
2018-11-14T15:07:52.905Z,16.10
2018-11-14T15:09:44.847Z,16.40
2018-11-14T15:10:44.825Z,16.20
2018-11-14T15:12:37.281Z,15.90
2018-11-14T15:13:37.272Z,16.10
2018-11-14T15:15:29.266Z,16.10
2018-11-14T15:16:29.203Z,16.00
2018-11-14T15:18:21.114Z,15.70
2018-11-14T15:19:21.123Z,15.50
2018-11-14T15:21:13.071Z,16.00
2018-11-14T15:22:13.065Z,15.80
2018-11-14T15:24:04.989Z,15.40
2018-11-14T15:25:05.002Z,15.20
2018-11-14T15:26:56.998Z,15.30
2018-11-14T15:27:56.931Z,14.80
2018-11-14T15:29:48.882Z,15.00
2018-11-14T15:30:48.894Z,14.60
2018-11-14T15:32:40.834Z,14.60
2018-11-14T15:33:40.823Z,14.50
2018-11-14T15:35:32.755Z,15.00
2018-11-14T15:36:32.762Z,14.20
2018-11-14T15:38:26.193Z,15.20
2018-11-14T15:39:26.184Z,14.30
2018-11-14T15:41:18.117Z,14.70
2018-11-14T15:42:18.107Z,14.70
2018-11-14T15:44:10.033Z,13.60
2018-11-14T15:45:10.037Z,13.80
2018-11-14T15:47:01.962Z,14.30
2018-11-14T15:48:01.951Z,14.10
2018-11-14T15:49:53.860Z,13.80
2018-11-14T15:50:53.881Z,13.50
2018-11-14T15:52:45.821Z,13.80
2018-11-14T15:53:45.811Z,13.70
2018-11-14T15:55:37.726Z,13.60
2018-11-14T15:56:37.736Z,13.40
2018-11-14T15:58:29.695Z,13.80
2018-11-14T15:59:29.678Z,13.50
2018-11-14T16:01:21.616Z,12.40
2018-11-14T16:02:21.606Z,13.40
2018-11-14T16:04:13.524Z,12.20
2018-11-14T16:05:13.532Z,12.80
2018-11-14T16:07:05.465Z,12.60
2018-11-14T16:08:05.452Z,12.20
2018-11-14T16:09:57.380Z,12.50
2018-11-14T16:10:57.383Z,12.80
2018-11-14T16:12:49.318Z,12.50
2018-11-14T16:13:49.311Z,12.20
2018-11-14T16:15:41.258Z,12.70
2018-11-14T16:16:41.252Z,12.00
2018-11-14T16:18:33.185Z,12.10
2018-11-14T16:19:33.171Z,11.90
2018-11-14T16:21:25.098Z,11.70
2018-11-14T16:22:25.085Z,12.20
2018-11-14T16:24:17.021Z,11.50
2018-11-14T16:25:17.009Z,12.10
2018-11-14T16:27:08.930Z,11.60
2018-11-14T16:28:08.920Z,11.50
2018-11-14T16:30:00.831Z,12.30
2018-11-14T16:31:00.843Z,11.80
2018-11-14T16:32:52.771Z,12.40
2018-11-14T16:33:52.760Z,11.90
2018-11-14T16:35:44.666Z,11.00
2018-11-14T16:36:44.676Z,11.70
2018-11-14T16:38:36.624Z,10.60
2018-11-14T16:39:36.602Z,10.80
2018-11-14T16:41:28.538Z,10.60
2018-11-14T16:42:28.524Z,10.00
2018-11-14T16:44:20.519Z,10.90
2018-11-14T16:45:20.465Z,11.50
2018-11-14T16:47:12.412Z,10.40
2018-11-14T16:48:12.394Z,10.50
2018-11-14T16:50:04.327Z,10.30
2018-11-14T16:51:04.333Z,10.60
2018-11-14T16:52:56.284Z,10.40
2018-11-14T16:53:56.274Z,10.30
2018-11-14T16:55:48.317Z,9.70
2018-11-14T16:56:48.213Z,9.90
2018-11-14T16:58:40.153Z,9.90